Terminal Aerodrome Forecast
Issued by NWS Sioux Falls, SD

Home | Current Version | Previous Version | Graphics & Text | Print | Product List | Glossary On
Versions: 1 2 3 4 5 6 7 8 9 10 11 12
000
FTUS43 KFSD 010520
TAFFSD
TAF
KFSD 010520Z 0106/0206 06012KT P6SM -RA OVC035
      TEMPO 0106/0109 OVC025
     FM011000 04012KT P6SM BKN035
     FM011500 03013G20KT P6SM SCT040
     FM020000 VRB04KT P6SM SKC=

USA.gov is the U.S. government's official web portal to all federal, state and local government web resources and services.